sensor_id;sensor_type;location;lat;lon;timestamp;pressure;altitude;pressure_sealevel;temperature;humidity
76448;BME280;65284;51.040;13.722;2023-04-01T00:01:03;98132.72;;;9.83;78.37
76448;BME280;65284;51.040;13.722;2023-04-01T00:03:30;98133.94;;;9.80;78.01
76448;BME280;65284;51.040;13.722;2023-04-01T00:05:57;98122.53;;;9.79;77.87
76448;BME280;65284;51.040;13.722;2023-04-01T00:08:25;98138.00;;;9.76;78.28
76448;BME280;65284;51.040;13.722;2023-04-01T00:10:53;98130.06;;;9.76;78.27
76448;BME280;65284;51.040;13.722;2023-04-01T00:13:20;98131.69;;;9.77;78.20
76448;BME280;65284;51.040;13.722;2023-04-01T00:15:46;98127.41;;;9.76;78.35
76448;BME280;65284;51.040;13.722;2023-04-01T00:18:13;98127.81;;;9.73;77.99
76448;BME280;65284;51.040;13.722;2023-04-01T00:20:44;98122.50;;;9.73;77.81
76448;BME280;65284;51.040;13.722;2023-04-01T00:23:11;98124.16;;;9.74;77.76
76448;BME280;65284;51.040;13.722;2023-04-01T00:25:38;98131.91;;;9.82;77.40
76448;BME280;65284;51.040;13.722;2023-04-01T00:28:04;98126.22;;;9.85;77.34
76448;BME280;65284;51.040;13.722;2023-04-01T00:30:31;98128.25;;;9.76;77.51
76448;BME280;65284;51.040;13.722;2023-04-01T00:32:57;98138.22;;;9.81;77.55
76448;BME280;65284;51.040;13.722;2023-04-01T00:35:24;98131.50;;;9.85;77.29
76448;BME280;65284;51.040;13.722;2023-04-01T00:37:50;98128.66;;;9.80;77.92
76448;BME280;65284;51.040;13.722;2023-04-01T00:40:41;98132.69;;;9.76;78.17
76448;BME280;65284;51.040;13.722;2023-04-01T00:43:19;98144.34;;;9.75;78.31
76448;BME280;65284;51.040;13.722;2023-04-01T00:45:48;98145.38;;;9.74;78.46
76448;BME280;65284;51.040;13.722;2023-04-01T00:48:18;98135.56;;;9.68;79.09
76448;BME280;65284;51.040;13.722;2023-04-01T00:50:57;98135.97;;;9.65;79.15
76448;BME280;65284;51.040;13.722;2023-04-01T00:53:26;98149.41;;;9.63;79.70
76448;BME280;65284;51.040;13.722;2023-04-01T00:56:00;98144.91;;;9.64;79.71
76448;BME280;65284;51.040;13.722;2023-04-01T00:58:29;98131.66;;;9.64;79.56
76448;BME280;65284;51.040;13.722;2023-04-01T01:00:59;98135.13;;;9.57;80.20
76448;BME280;65284;51.040;13.722;2023-04-01T01:03:26;98134.75;;;9.67;79.27
76448;BME280;65284;51.040;13.722;2023-04-01T01:06:03;98131.66;;;9.64;79.41
76448;BME280;65284;51.040;13.722;2023-04-01T01:08:56;98127.56;;;9.61;78.62
76448;BME280;65284;51.040;13.722;2023-04-01T01:14:29;98128.81;;;9.65;78.45
76448;BME280;65284;51.040;13.722;2023-04-01T01:20:12;98122.91;;;9.70;77.80
76448;BME280;65284;51.040;13.722;2023-04-01T01:28:26;98124.38;;;9.79;77.18
76448;BME280;65284;51.040;13.722;2023-04-01T01:31:09;98129.84;;;9.71;77.24
76448;BME280;65284;51.040;13.722;2023-04-01T01:36:28;98119.66;;;9.68;77.24
76448;BME280;65284;51.040;13.722;2023-04-01T01:38:57;98119.44;;;9.63;77.81
76448;BME280;65284;51.040;13.722;2023-04-01T01:41:25;98127.22;;;9.71;77.62
76448;BME280;65284;51.040;13.722;2023-04-01T01:43:53;98124.34;;;9.66;77.78
76448;BME280;65284;51.040;13.722;2023-04-01T01:46:23;98123.94;;;9.62;77.41
76448;BME280;65284;51.040;13.722;2023-04-01T01:48:52;98130.03;;;9.63;77.66
76448;BME280;65284;51.040;13.722;2023-04-01T01:51:21;98126.75;;;9.61;77.83
76448;BME280;65284;51.040;13.722;2023-04-01T01:53:48;98139.03;;;9.75;77.28
76448;BME280;65284;51.040;13.722;2023-04-01T01:56:17;98128.59;;;9.67;77.11
76448;BME280;65284;51.040;13.722;2023-04-01T01:58:47;98139.63;;;9.64;77.11
76448;BME280;65284;51.040;13.722;2023-04-01T02:01:27;98122.31;;;9.68;77.17
76448;BME280;65284;51.040;13.722;2023-04-01T02:03:54;98133.50;;;9.70;77.35
76448;BME280;65284;51.040;13.722;2023-04-01T02:06:23;98128.59;;;9.60;77.29
76448;BME280;65284;51.040;13.722;2023-04-01T02:08:57;98132.69;;;9.63;77.27
76448;BME280;65284;51.040;13.722;2023-04-01T02:11:32;98122.50;;;9.60;77.37
76448;BME280;65284;51.040;13.722;2023-04-01T02:14:07;98129.41;;;9.61;77.22
76448;BME280;65284;51.040;13.722;2023-04-01T02:16:45;98128.19;;;9.63;77.30
76448;BME280;65284;51.040;13.722;2023-04-01T02:19:14;98140.41;;;9.57;77.21
76448;BME280;65284;51.040;13.722;2023-04-01T02:21:55;98138.41;;;9.60;77.17
76448;BME280;65284;51.040;13.722;2023-04-01T02:24:25;98127.78;;;9.60;76.85
76448;BME280;65284;51.040;13.722;2023-04-01T02:26:53;98134.31;;;9.57;76.77
76448;BME280;65284;51.040;13.722;2023-04-01T02:29:22;98134.13;;;9.59;76.73
76448;BME280;65284;51.040;13.722;2023-04-01T02:31:50;98140.41;;;9.57;76.97
76448;BME280;65284;51.040;13.722;2023-04-01T02:34:17;98122.09;;;9.63;76.82
76448;BME280;65284;51.040;13.722;2023-04-01T02:36:44;98124.94;;;9.61;76.93
76448;BME280;65284;51.040;13.722;2023-04-01T02:39:10;98140.00;;;9.61;76.81
76448;BME280;65284;51.040;13.722;2023-04-01T02:41:41;98140.41;;;9.57;76.90
76448;BME280;65284;51.040;13.722;2023-04-01T02:44:10;98134.31;;;9.57;76.70
76448;BME280;65284;51.040;13.722;2023-04-01T02:46:36;98142.06;;;9.59;76.74
76448;BME280;65284;51.040;13.722;2023-04-01T02:49:04;98138.81;;;9.56;76.54
76448;BME280;65284;51.040;13.722;2023-04-01T02:51:31;98131.88;;;9.55;77.13
76448;BME280;65284;51.040;13.722;2023-04-01T02:53:58;98135.13;;;9.57;76.86
76448;BME280;65284;51.040;13.722;2023-04-01T02:56:25;98139.59;;;9.57;76.87
76448;BME280;65284;51.040;13.722;2023-04-01T02:58:53;98147.78;;;9.55;76.88
76448;BME280;65284;51.040;13.722;2023-04-01T03:01:20;98153.47;;;9.52;76.79
76448;BME280;65284;51.040;13.722;2023-04-01T03:03:46;98151.19;;;9.49;76.97
76448;BME280;65284;51.040;13.722;2023-04-01T03:06:14;98149.81;;;9.53;76.93
76448;BME280;65284;51.040;13.722;2023-04-01T03:08:42;98156.72;;;9.54;76.79
76448;BME280;65284;51.040;13.722;2023-04-01T03:11:09;98160.81;;;9.50;76.72
76448;BME280;65284;51.040;13.722;2023-04-01T03:13:36;98159.16;;;9.49;76.66
76448;BME280;65284;51.040;13.722;2023-04-01T03:16:03;98160.81;;;9.50;76.45
76448;BME280;65284;51.040;13.722;2023-04-01T03:18:30;98152.63;;;9.52;76.38
76448;BME280;65284;51.040;13.722;2023-04-01T03:20:56;98157.53;;;9.48;76.52
76448;BME280;65284;51.040;13.722;2023-04-01T03:23:23;98157.09;;;9.45;76.60
76448;BME280;65284;51.040;13.722;2023-04-01T03:25:50;98167.31;;;9.48;76.70
76448;BME280;65284;51.040;13.722;2023-04-01T03:28:16;98157.53;;;9.48;76.82
76448;BME280;65284;51.040;13.722;2023-04-01T03:30:43;98164.44;;;9.43;76.54
76448;BME280;65284;51.040;13.722;2023-04-01T03:33:09;98160.16;;;9.48;76.30
76448;BME280;65284;51.040;13.722;2023-04-01T03:35:36;98160.56;;;9.45;76.50
76448;BME280;65284;51.040;13.722;2023-04-01T03:38:02;98170.53;;;9.43;76.56
76448;BME280;65284;51.040;13.722;2023-04-01T03:40:29;98163.84;;;9.41;76.45
76448;BME280;65284;51.040;13.722;2023-04-01T03:42:55;98168.50;;;9.39;76.63
76448;BME280;65284;51.040;13.722;2023-04-01T03:45:22;98171.34;;;9.37;76.68
76448;BME280;65284;51.040;13.722;2023-04-01T03:47:49;98173.41;;;9.48;75.97
76448;BME280;65284;51.040;13.722;2023-04-01T03:50:15;98176.25;;;9.40;76.33
76448;BME280;65284;51.040;13.722;2023-04-01T03:52:41;98176.28;;;9.47;76.05
76448;BME280;65284;51.040;13.722;2023-04-01T03:55:08;98176.88;;;9.42;76.24
76448;BME280;65284;51.040;13.722;2023-04-01T03:57:34;98178.72;;;9.48;75.94
76448;BME280;65284;51.040;13.722;2023-04-01T04:00:01;98177.09;;;9.47;75.71
76448;BME280;65284;51.040;13.722;2023-04-01T04:02:28;98173.19;;;9.43;75.94
76448;BME280;65284;51.040;13.722;2023-04-01T04:04:54;98180.75;;;9.46;75.31
76448;BME280;65284;51.040;13.722;2023-04-01T04:07:21;98184.88;;;9.55;75.21
76448;BME280;65284;51.040;13.722;2023-04-01T04:09:47;98172.63;;;9.54;74.86
76448;BME280;65284;51.040;13.722;2023-04-01T04:12:13;98179.34;;;9.57;74.93
76448;BME280;65284;51.040;13.722;2023-04-01T04:14:40;98185.03;;;9.47;75.12
76448;BME280;65284;51.040;13.722;2023-04-01T04:17:06;98173.03;;;9.51;75.28
76448;BME280;65284;51.040;13.722;2023-04-01T04:19:34;98190.19;;;9.62;74.63
76448;BME280;65284;51.040;13.722;2023-04-01T04:22:00;98190.19;;;9.55;74.80
76448;BME280;65284;51.040;13.722;2023-04-01T04:24:27;98192.44;;;9.59;74.40
76448;BME280;65284;51.040;13.722;2023-04-01T04:26:53;98203.22;;;9.57;74.61
76448;BME280;65284;51.040;13.722;2023-04-01T04:29:20;98196.25;;;9.49;74.97
76448;BME280;65284;51.040;13.722;2023-04-01T04:31:46;98197.09;;;9.56;74.32
76448;BME280;65284;51.040;13.722;2023-04-01T04:34:13;98205.69;;;9.59;74.57
76448;BME280;65284;51.040;13.722;2023-04-01T04:36:39;98200.78;;;9.55;74.09
76448;BME280;65284;51.040;13.722;2023-04-01T04:39:06;98204.00;;;9.51;74.50
76448;BME280;65284;51.040;13.722;2023-04-01T04:41:32;98211.38;;;9.55;74.15
76448;BME280;65284;51.040;13.722;2023-04-01T04:44:01;98213.00;;;9.56;73.92
76448;BME280;65284;51.040;13.722;2023-04-01T04:46:28;98208.94;;;9.61;74.13
76448;BME280;65284;51.040;13.722;2023-04-01T04:48:54;98210.75;;;9.53;74.26
76448;BME280;65284;51.040;13.722;2023-04-01T04:51:21;98206.50;;;9.59;73.75
76448;BME280;65284;51.040;13.722;2023-04-01T04:53:48;98207.69;;;9.56;74.23
76448;BME280;65284;51.040;13.722;2023-04-01T04:56:21;98212.00;;;9.64;74.05
76448;BME280;65284;51.040;13.722;2023-04-01T04:58:48;98212.38;;;9.54;74.21
76448;BME280;65284;51.040;13.722;2023-04-01T05:01:15;98218.31;;;9.56;74.32
76448;BME280;65284;51.040;13.722;2023-04-01T05:03:42;98222.97;;;9.54;74.35
76448;BME280;65284;51.040;13.722;2023-04-01T05:06:11;98218.88;;;9.52;74.14
76448;BME280;65284;51.040;13.722;2023-04-01T05:08:38;98208.50;;;9.57;74.18
76448;BME280;65284;51.040;13.722;2023-04-01T05:11:09;98224.63;;;9.55;74.31
76448;BME280;65284;51.040;13.722;2023-04-01T05:13:39;98218.69;;;9.53;74.59
76448;BME280;65284;51.040;13.722;2023-04-01T05:16:13;98219.72;;;9.52;74.31
76448;BME280;65284;51.040;13.722;2023-04-01T05:18:41;98223.78;;;9.55;74.63
76448;BME280;65284;51.040;13.722;2023-04-01T05:21:09;98229.72;;;9.57;74.71
76448;BME280;65284;51.040;13.722;2023-04-01T05:23:36;98239.50;;;9.56;74.61
76448;BME280;65284;51.040;13.722;2023-04-01T05:26:11;98229.72;;;9.57;74.81
76448;BME280;65284;51.040;13.722;2023-04-01T05:28:39;98226.88;;;9.59;75.07
76448;BME280;65284;51.040;13.722;2023-04-01T05:31:06;98242.78;;;9.59;74.82
76448;BME280;65284;51.040;13.722;2023-04-01T05:33:33;98249.31;;;9.63;74.69
76448;BME280;65284;51.040;13.722;2023-04-01T05:36:08;98249.72;;;9.60;74.84
76448;BME280;65284;51.040;13.722;2023-04-01T05:38:35;98236.88;;;9.63;74.85
76448;BME280;65284;51.040;13.722;2023-04-01T05:41:02;98241.16;;;9.64;74.97
76448;BME280;65284;51.040;13.722;2023-04-01T05:43:29;98241.59;;;9.68;74.68
76448;BME280;65284;51.040;13.722;2023-04-01T05:45:57;98238.31;;;9.66;74.58
76448;BME280;65284;51.040;13.722;2023-04-01T05:48:23;98249.53;;;9.68;74.65
76448;BME280;65284;51.040;13.722;2023-04-01T05:50:50;98251.34;;;9.61;75.16
76448;BME280;65284;51.040;13.722;2023-04-01T05:53:16;98255.44;;;9.63;74.97
76448;BME280;65284;51.040;13.722;2023-04-01T05:55:42;98250.94;;;9.64;74.86
76448;BME280;65284;51.040;13.722;2023-04-01T05:58:09;98246.50;;;9.71;75.27
76448;BME280;65284;51.040;13.722;2023-04-01T06:00:35;98248.91;;;9.66;75.44
76448;BME280;65284;51.040;13.722;2023-04-01T06:03:02;98251.38;;;9.67;75.34
76448;BME280;65284;51.040;13.722;2023-04-01T06:05:30;98259.13;;;9.69;75.70
76448;BME280;65284;51.040;13.722;2023-04-01T06:08:10;98253.84;;;9.75;76.00
76448;BME280;65284;51.040;13.722;2023-04-01T06:10:55;98258.09;;;9.70;75.76
76448;BME280;65284;51.040;13.722;2023-04-01T06:16:42;98254.06;;;9.74;75.03
76448;BME280;65284;51.040;13.722;2023-04-01T06:22:14;98249.34;;;9.76;74.02
76448;BME280;65284;51.040;13.722;2023-04-01T06:25:17;98263.28;;;9.91;73.54
76448;BME280;65284;51.040;13.722;2023-04-01T06:27:52;98261.84;;;9.95;73.93
76448;BME280;65284;51.040;13.722;2023-04-01T06:30:34;98257.78;;;9.99;72.91
76448;BME280;65284;51.040;13.722;2023-04-01T06:35:50;98259.66;;;10.12;72.52
76448;BME280;65284;51.040;13.722;2023-04-01T06:41:18;98266.59;;;10.13;71.70
76448;BME280;65284;51.040;13.722;2023-04-01T06:44:04;98268.66;;;10.18;71.20
76448;BME280;65284;51.040;13.722;2023-04-01T06:46:48;98269.47;;;10.25;70.91
76448;BME280;65284;51.040;13.722;2023-04-01T06:52:25;98264.81;;;10.27;71.18
76448;BME280;65284;51.040;13.722;2023-04-01T06:54:58;98267.47;;;10.34;70.81
76448;BME280;65284;51.040;13.722;2023-04-01T06:57:32;98273.59;;;10.34;70.67
76448;BME280;65284;51.040;13.722;2023-04-01T07:00:05;98271.78;;;10.41;70.47
76448;BME280;65284;51.040;13.722;2023-04-01T07:02:45;98270.34;;;10.45;70.66
76448;BME280;65284;51.040;13.722;2023-04-01T07:05:14;98274.03;;;10.44;70.27
76448;BME280;65284;51.040;13.722;2023-04-01T07:07:43;98276.47;;;10.53;70.30
76448;BME280;65284;51.040;13.722;2023-04-01T07:10:21;98276.88;;;10.50;69.70
76448;BME280;65284;51.040;13.722;2023-04-01T07:12:52;98267.50;;;10.54;69.01
76448;BME280;65284;51.040;13.722;2023-04-01T07:15:25;98282.00;;;10.51;69.37
76448;BME280;65284;51.040;13.722;2023-04-01T07:17:56;98290.38;;;10.55;69.37
76448;BME280;65284;51.040;13.722;2023-04-01T07:20:31;98295.03;;;10.53;69.83
76448;BME280;65284;51.040;13.722;2023-04-01T07:23:00;98301.78;;;10.48;69.59
76448;BME280;65284;51.040;13.722;2023-04-01T07:25:38;98299.34;;;10.54;69.43
76448;BME280;65284;51.040;13.722;2023-04-01T07:28:11;98302.41;;;10.64;69.31
76448;BME280;65284;51.040;13.722;2023-04-01T07:31:13;98298.94;;;10.70;69.22
76448;BME280;65284;51.040;13.722;2023-04-01T07:36:35;98298.53;;;10.60;69.03
76448;BME280;65284;51.040;13.722;2023-04-01T07:39:25;98311.41;;;10.63;69.28
76448;BME280;65284;51.040;13.722;2023-04-01T07:42:04;98294.44;;;10.64;68.88
76448;BME280;65284;51.040;13.722;2023-04-01T07:44:59;98311.81;;;10.60;68.92
76448;BME280;65284;51.040;13.722;2023-04-01T07:50:24;98301.81;;;10.62;69.04
76448;BME280;65284;51.040;13.722;2023-04-01T07:55:51;98307.53;;;10.65;69.17
76448;BME280;65284;51.040;13.722;2023-04-01T07:58:43;98309.16;;;10.60;69.30
76448;BME280;65284;51.040;13.722;2023-04-01T08:01:33;98310.41;;;10.77;68.98
76448;BME280;65284;51.040;13.722;2023-04-01T08:06:37;98317.75;;;10.82;69.21
76448;BME280;65284;51.040;13.722;2023-04-01T08:09:23;98327.13;;;10.91;69.02
76448;BME280;65284;51.040;13.722;2023-04-01T08:12:07;98318.97;;;10.92;68.64
76448;BME280;65284;51.040;13.722;2023-04-01T08:14:56;98318.56;;;10.96;68.84
76448;BME280;65284;51.040;13.722;2023-04-01T08:17:33;98323.47;;;11.05;68.69
76448;BME280;65284;51.040;13.722;2023-04-01T08:20:17;98329.16;;;11.09;68.14
76448;BME280;65284;51.040;13.722;2023-04-01T08:22:49;98330.63;;;11.05;67.67
76448;BME280;65284;51.040;13.722;2023-04-01T08:25:22;98327.53;;;11.08;67.60
76448;BME280;65284;51.040;13.722;2023-04-01T08:28:13;98332.66;;;11.09;66.88
76448;BME280;65284;51.040;13.722;2023-04-01T08:30:47;98345.72;;;11.11;67.57
76448;BME280;65284;51.040;13.722;2023-04-01T08:33:21;98333.03;;;11.26;67.40
76448;BME280;65284;51.040;13.722;2023-04-01T08:38:43;98340.63;;;11.16;67.13
76448;BME280;65284;51.040;13.722;2023-04-01T08:44:04;98345.53;;;11.19;67.13
76448;BME280;65284;51.040;13.722;2023-04-01T08:52:30;98349.00;;;11.20;67.17
76448;BME280;65284;51.040;13.722;2023-04-01T08:55:13;98338.38;;;11.13;67.99
76448;BME280;65284;51.040;13.722;2023-04-01T08:57:56;98344.09;;;11.30;67.82
76448;BME280;65284;51.040;13.722;2023-04-01T09:00:33;98330.56;;;11.38;67.68
76448;BME280;65284;51.040;13.722;2023-04-01T09:03:19;98340.41;;;11.31;67.74
76448;BME280;65284;51.040;13.722;2023-04-01T09:06:02;98345.91;;;11.43;67.26
76448;BME280;65284;51.040;13.722;2023-04-01T09:08:56;98343.88;;;11.31;66.43
76448;BME280;65284;51.040;13.722;2023-04-01T09:11:33;98340.81;;;11.34;66.20
76448;BME280;65284;51.040;13.722;2023-04-01T09:14:13;98338.97;;;11.35;66.16
76448;BME280;65284;51.040;13.722;2023-04-01T09:17:02;98345.91;;;11.43;66.13
76448;BME280;65284;51.040;13.722;2023-04-01T09:22:48;98352.44;;;11.47;65.24
76448;BME280;65284;51.040;13.722;2023-04-01T09:25:27;98347.13;;;11.47;65.73
76448;BME280;65284;51.040;13.722;2023-04-01T09:28:10;98352.22;;;11.55;65.41
76448;BME280;65284;51.040;13.722;2023-04-01T09:33:37;98361.00;;;11.62;64.85
76448;BME280;65284;51.040;13.722;2023-04-01T09:36:29;98360.38;;;11.53;65.09
76448;BME280;65284;51.040;13.722;2023-04-01T09:39:23;98353.84;;;11.56;64.94
76448;BME280;65284;51.040;13.722;2023-04-01T09:44:58;98376.34;;;11.60;65.15
76448;BME280;65284;51.040;13.722;2023-04-01T09:47:43;98354.47;;;11.51;65.52
76448;BME280;65284;51.040;13.722;2023-04-01T09:50:34;98354.47;;;11.51;65.46
76448;BME280;65284;51.040;13.722;2023-04-01T09:53:11;98361.00;;;11.62;65.15
76448;BME280;65284;51.040;13.722;2023-04-01T10:01:45;98365.09;;;11.58;64.06
76448;BME280;65284;51.040;13.722;2023-04-01T10:16:13;98361.81;;;11.69;65.03
76448;BME280;65284;51.040;13.722;2023-04-01T10:19:05;98364.66;;;11.74;64.11
76448;BME280;65284;51.040;13.722;2023-04-01T10:21:56;98377.56;;;11.64;64.75
76448;BME280;65284;51.040;13.722;2023-04-01T10:24:45;98379.44;;;11.57;64.75
76448;BME280;65284;51.040;13.722;2023-04-01T10:27:30;98371.25;;;11.52;65.34
76448;BME280;65284;51.040;13.722;2023-04-01T10:33:36;98378.03;;;11.48;65.55
76448;BME280;65284;51.040;13.722;2023-04-01T10:36:34;98368.78;;;11.64;65.05
76448;BME280;65284;51.040;13.722;2023-04-01T10:39:34;98369.59;;;11.64;65.43
76448;BME280;65284;51.040;13.722;2023-04-01T10:42:46;98374.28;;;11.75;65.23
76448;BME280;65284;51.040;13.722;2023-04-01T10:50:50;98388.41;;;11.69;64.96
76448;BME280;65284;51.040;13.722;2023-04-01T10:53:34;98377.75;;;11.69;64.91
76448;BME280;65284;51.040;13.722;2023-04-01T11:22:17;98378.06;;;12.13;65.70
76448;BME280;65284;51.040;13.722;2023-04-01T11:30:25;98371.56;;;12.02;64.54
76448;BME280;65284;51.040;13.722;2023-04-01T11:33:05;98377.66;;;12.09;64.85
76448;BME280;65284;51.040;13.722;2023-04-01T11:35:55;98372.34;;;12.16;65.22
76448;BME280;65284;51.040;13.722;2023-04-01T11:38:49;98383.72;;;12.29;66.48
76448;BME280;65284;51.040;13.722;2023-04-01T11:41:34;98386.28;;;11.98;69.29
76448;BME280;65284;51.040;13.722;2023-04-01T11:44:28;98391.25;;;11.88;70.06
76448;BME280;65284;51.040;13.722;2023-04-01T11:47:19;98387.16;;;11.85;70.68
76448;BME280;65284;51.040;13.722;2023-04-01T11:53:26;98385.41;;;12.17;69.78
76448;BME280;65284;51.040;13.722;2023-04-01T11:56:09;98394.44;;;12.16;68.91
76448;BME280;65284;51.040;13.722;2023-04-01T12:01:56;98393.59;;;12.22;67.01
76448;BME280;65284;51.040;13.722;2023-04-01T12:04:47;98389.88;;;12.23;66.93
76448;BME280;65284;51.040;13.722;2023-04-01T12:07:43;98372.69;;;12.26;66.72
76448;BME280;65284;51.040;13.722;2023-04-01T12:15:34;98385.19;;;12.25;66.12
76448;BME280;65284;51.040;13.722;2023-04-01T12:18:28;98387.88;;;12.19;66.81
76448;BME280;65284;51.040;13.722;2023-04-01T12:21:24;98378.03;;;12.19;67.03
76448;BME280;65284;51.040;13.722;2023-04-01T12:24:06;98387.03;;;12.18;66.42
76448;BME280;65284;51.040;13.722;2023-04-01T12:32:19;98385.13;;;12.32;66.78
76448;BME280;65284;51.040;13.722;2023-04-01T12:40:31;98387.84;;;12.25;66.48
76448;BME280;65284;51.040;13.722;2023-04-01T12:43:25;98382.91;;;12.29;66.49
76448;BME280;65284;51.040;13.722;2023-04-01T12:45:57;98381.59;;;12.45;66.41
76448;BME280;65284;51.040;13.722;2023-04-01T12:52:07;98386.84;;;12.58;66.95
76448;BME280;65284;51.040;13.722;2023-04-01T12:54:48;98385.75;;;12.72;66.60
76448;BME280;65284;51.040;13.722;2023-04-01T13:00:27;98388.56;;;12.78;64.85
76448;BME280;65284;51.040;13.722;2023-04-01T13:03:17;98384.22;;;12.90;63.97
76448;BME280;65284;51.040;13.722;2023-04-01T13:15:05;98385.56;;;13.24;60.03
76448;BME280;65284;51.040;13.722;2023-04-01T13:23:13;98408.50;;;13.32;58.99
76448;BME280;65284;51.040;13.722;2023-04-01T13:28:43;98406.50;;;12.95;59.51
76448;BME280;65284;51.040;13.722;2023-04-01T13:31:44;98398.59;;;13.07;59.63
76448;BME280;65284;51.040;13.722;2023-04-01T13:34:39;98405.69;;;13.27;60.34
76448;BME280;65284;51.040;13.722;2023-04-01T13:42:51;98403.34;;;13.37;60.79
76448;BME280;65284;51.040;13.722;2023-04-01T14:01:39;98402.31;;;13.38;58.80
76448;BME280;65284;51.040;13.722;2023-04-01T14:10:08;98401.38;;;13.51;59.48
76448;BME280;65284;51.040;13.722;2023-04-01T14:15:23;98410.13;;;13.58;62.07
76448;BME280;65284;51.040;13.722;2023-04-01T14:18:13;98416.31;;;13.77;60.04
76448;BME280;65284;51.040;13.722;2023-04-01T14:24:02;98406.63;;;13.57;61.24
76448;BME280;65284;51.040;13.722;2023-04-01T14:26:54;98415.56;;;13.70;60.95
76448;BME280;65284;51.040;13.722;2023-04-01T14:35:09;98417.47;;;13.62;59.42
76448;BME280;65284;51.040;13.722;2023-04-01T14:43:43;98429.66;;;13.27;60.78
76448;BME280;65284;51.040;13.722;2023-04-01T14:46:41;98425.63;;;13.42;60.74
76448;BME280;65284;51.040;13.722;2023-04-01T14:49:20;98437.59;;;13.40;61.26
76448;BME280;65284;51.040;13.722;2023-04-01T14:51:48;98440.50;;;13.32;60.79
76448;BME280;65284;51.040;13.722;2023-04-01T14:54:20;98443.09;;;13.13;60.98
76448;BME280;65284;51.040;13.722;2023-04-01T14:57:13;98454.06;;;13.24;60.00
76448;BME280;65284;51.040;13.722;2023-04-01T15:00:09;98440.41;;;13.13;59.37
76448;BME280;65284;51.040;13.722;2023-04-01T15:09:06;98464.19;;;12.77;59.10
76448;BME280;65284;51.040;13.722;2023-04-01T15:16:55;98470.47;;;12.50;60.92
76448;BME280;65284;51.040;13.722;2023-04-01T15:19:57;98469.00;;;12.61;61.00
76448;BME280;65284;51.040;13.722;2023-04-01T15:22:51;98473.66;;;12.72;60.94
76448;BME280;65284;51.040;13.722;2023-04-01T15:25:51;98486.78;;;12.67;61.34
76448;BME280;65284;51.040;13.722;2023-04-01T15:28:39;98470.50;;;12.44;62.19
76448;BME280;65284;51.040;13.722;2023-04-01T15:31:17;98470.72;;;12.36;62.95
76448;BME280;65284;51.040;13.722;2023-04-01T15:33:55;98481.78;;;12.33;63.15
76448;BME280;65284;51.040;13.722;2023-04-01T15:36:55;98477.66;;;12.43;63.21
76448;BME280;65284;51.040;13.722;2023-04-01T15:42:22;98488.50;;;12.42;63.25
76448;BME280;65284;51.040;13.722;2023-04-01T15:55:47;98501.91;;;12.15;63.30
76448;BME280;65284;51.040;13.722;2023-04-01T15:58:28;98499.25;;;12.15;63.74
76448;BME280;65284;51.040;13.722;2023-04-01T16:09:49;98499.84;;;12.31;63.35
76448;BME280;65284;51.040;13.722;2023-04-01T16:15:28;98500.06;;;12.09;63.29
76448;BME280;65284;51.040;13.722;2023-04-01T16:18:21;98507.88;;;12.04;63.54
76448;BME280;65284;51.040;13.722;2023-04-01T16:21:05;98515.25;;;12.02;63.59
76448;BME280;65284;51.040;13.722;2023-04-01T16:23:43;98515.88;;;12.04;63.67
76448;BME280;65284;51.040;13.722;2023-04-01T16:26:22;98516.06;;;11.96;64.13
76448;BME280;65284;51.040;13.722;2023-04-01T16:28:57;98515.25;;;11.89;64.37
76448;BME280;65284;51.040;13.722;2023-04-01T16:34:20;98520.56;;;11.89;64.98
76448;BME280;65284;51.040;13.722;2023-04-01T16:36:51;98528.34;;;11.83;64.89
76448;BME280;65284;51.040;13.722;2023-04-01T16:39:44;98541.00;;;11.81;64.99
76448;BME280;65284;51.040;13.722;2023-04-01T16:42:51;98543.84;;;11.80;65.14
76448;BME280;65284;51.040;13.722;2023-04-01T16:45:38;98545.53;;;11.74;65.87
76448;BME280;65284;51.040;13.722;2023-04-01T16:48:14;98547.16;;;11.75;66.31
76448;BME280;65284;51.040;13.722;2023-04-01T16:50:51;98545.50;;;11.68;66.60
76448;BME280;65284;51.040;13.722;2023-04-01T16:53:34;98553.88;;;11.58;67.59
76448;BME280;65284;51.040;13.722;2023-04-01T16:56:10;98559.00;;;11.66;67.62
76448;BME280;65284;51.040;13.722;2023-04-01T16:59:06;98563.50;;;11.59;68.71
76448;BME280;65284;51.040;13.722;2023-04-01T17:01:49;98573.94;;;11.54;69.43
76448;BME280;65284;51.040;13.722;2023-04-01T17:04:24;98571.69;;;11.51;69.95
76448;BME280;65284;51.040;13.722;2023-04-01T17:07:00;98581.28;;;11.45;70.52
76448;BME280;65284;51.040;13.722;2023-04-01T17:09:57;98582.69;;;11.41;70.98
76448;BME280;65284;51.040;13.722;2023-04-01T17:12:49;98583.72;;;11.33;71.72
76448;BME280;65284;51.040;13.722;2023-04-01T17:21:03;98596.53;;;11.23;73.09
76448;BME280;65284;51.040;13.722;2023-04-01T17:23:38;98594.91;;;11.22;73.05
76448;BME280;65284;51.040;13.722;2023-04-01T17:26:32;98596.53;;;11.16;73.76
76448;BME280;65284;51.040;13.722;2023-04-01T17:29:23;98600.00;;;11.17;73.33
76448;BME280;65284;51.040;13.722;2023-04-01T17:32:07;98599.16;;;11.10;74.11
76448;BME280;65284;51.040;13.722;2023-04-01T17:35:05;98610.81;;;11.09;73.97
76448;BME280;65284;51.040;13.722;2023-04-01T17:37:49;98601.44;;;11.13;73.66
76448;BME280;65284;51.040;13.722;2023-04-01T17:40:41;98610.41;;;11.12;73.56
76448;BME280;65284;51.040;13.722;2023-04-01T17:43:37;98609.81;;;11.16;73.48
76448;BME280;65284;51.040;13.722;2023-04-01T17:46:19;98612.47;;;11.10;73.37
76448;BME280;65284;51.040;13.722;2023-04-01T17:49:07;98621.66;;;11.14;73.76
76448;BME280;65284;51.040;13.722;2023-04-01T17:54:49;98629.59;;;11.07;73.50
76448;BME280;65284;51.040;13.722;2023-04-01T17:57:39;98622.22;;;11.03;73.53
76448;BME280;65284;51.040;13.722;2023-04-01T18:00:25;98629.97;;;10.98;73.55
76448;BME280;65284;51.040;13.722;2023-04-01T18:03:13;98628.16;;;11.05;74.41